sensor_id;sensor_type;location;lat;lon;timestamp;P1;P2;P0
26185;PMS7003;20067;48.764;9.176;2023-09-30T00:01:08;9.00;9.00;1.50
26185;PMS7003;20067;48.764;9.176;2023-09-30T00:03:35;9.75;9.75;2.00
26185;PMS7003;20067;48.764;9.176;2023-09-30T00:06:01;10.50;9.00;2.00
26185;PMS7003;20067;48.764;9.176;2023-09-30T00:08:26;12.00;10.00;1.25
26185;PMS7003;20067;48.764;9.176;2023-09-30T00:10:52;11.50;9.75;1.00
26185;PMS7003;20067;48.764;9.176;2023-09-30T00:13:18;10.00;9.50;1.00
26185;PMS7003;20067;48.764;9.176;2023-09-30T00:15:44;12.25;10.00;1.50
26185;PMS7003;20067;48.764;9.176;2023-09-30T00:18:10;9.00;7.00;1.00
26185;PMS7003;20067;48.764;9.176;2023-09-30T00:20:35;9.00;9.00;2.00
26185;PMS7003;20067;48.764;9.176;2023-09-30T00:23:01;10.25;10.25;1.75
26185;PMS7003;20067;48.764;9.176;2023-09-30T00:25:27;10.50;9.00;2.00
26185;PMS7003;20067;48.764;9.176;2023-09-30T00:27:52;9.25;9.25;2.00
26185;PMS7003;20067;48.764;9.176;2023-09-30T00:30:18;9.00;9.00;1.00
26185;PMS7003;20067;48.764;9.176;2023-09-30T00:32:44;9.00;9.00;2.00
26185;PMS7003;20067;48.764;9.176;2023-09-30T00:35:09;9.00;8.75;2.00
26185;PMS7003;20067;48.764;9.176;2023-09-30T00:37:36;11.50;9.00;1.75
26185;PMS7003;20067;48.764;9.176;2023-09-30T00:40:07;8.50;8.00;2.00
26185;PMS7003;20067;48.764;9.176;2023-09-30T00:42:40;11.75;9.25;2.00
26185;PMS7003;20067;48.764;9.176;2023-09-30T00:45:06;9.50;9.00;1.25
26185;PMS7003;20067;48.764;9.176;2023-09-30T00:47:35;11.00;11.00;2.00
26185;PMS7003;20067;48.764;9.176;2023-09-30T00:50:02;10.00;9.50;1.00
26185;PMS7003;20067;48.764;9.176;2023-09-30T00:52:30;13.25;12.00;4.00
26185;PMS7003;20067;48.764;9.176;2023-09-30T00:54:58;10.00;9.25;1.75
26185;PMS7003;20067;48.764;9.176;2023-09-30T00:57:24;13.00;9.25;2.00
26185;PMS7003;20067;48.764;9.176;2023-09-30T00:59:51;11.00;9.75;1.75
26185;PMS7003;20067;48.764;9.176;2023-09-30T01:02:17;8.00;6.50;1.75
26185;PMS7003;20067;48.764;9.176;2023-09-30T01:04:44;8.50;8.50;2.00
26185;PMS7003;20067;48.764;9.176;2023-09-30T01:07:10;11.00;9.50;2.00
26185;PMS7003;20067;48.764;9.176;2023-09-30T01:09:36;8.50;8.50;1.25
26185;PMS7003;20067;48.764;9.176;2023-09-30T01:12:02;12.00;10.00;1.50
26185;PMS7003;20067;48.764;9.176;2023-09-30T01:14:29;12.00;12.00;1.25
26185;PMS7003;20067;48.764;9.176;2023-09-30T01:16:55;12.00;12.00;1.00
26185;PMS7003;20067;48.764;9.176;2023-09-30T01:19:22;11.00;11.00;1.50
26185;PMS7003;20067;48.764;9.176;2023-09-30T01:21:56;12.00;12.00;2.00
26185;PMS7003;20067;48.764;9.176;2023-09-30T01:24:25;12.50;12.50;2.00
26185;PMS7003;20067;48.764;9.176;2023-09-30T01:26:52;14.00;12.25;1.25
26185;PMS7003;20067;48.764;9.176;2023-09-30T01:29:18;14.00;14.00;1.00
26185;PMS7003;20067;48.764;9.176;2023-09-30T01:31:43;13.75;11.75;1.50
26185;PMS7003;20067;48.764;9.176;2023-09-30T01:34:12;12.00;11.50;1.25
26185;PMS7003;20067;48.764;9.176;2023-09-30T01:36:39;13.00;10.50;1.00
26185;PMS7003;20067;48.764;9.176;2023-09-30T01:39:05;9.00;9.00;2.00
26185;PMS7003;20067;48.764;9.176;2023-09-30T01:41:32;12.50;9.50;2.00
26185;PMS7003;20067;48.764;9.176;2023-09-30T01:43:58;9.50;8.75;2.00
26185;PMS7003;20067;48.764;9.176;2023-09-30T01:46:23;11.50;11.00;2.00
26185;PMS7003;20067;48.764;9.176;2023-09-30T01:48:49;9.25;7.75;1.50
26185;PMS7003;20067;48.764;9.176;2023-09-30T01:51:15;9.00;8.50;2.00
26185;PMS7003;20067;48.764;9.176;2023-09-30T01:53:41;6.50;6.50;1.00
26185;PMS7003;20067;48.764;9.176;2023-09-30T01:56:08;8.00;8.00;1.75
26185;PMS7003;20067;48.764;9.176;2023-09-30T01:58:33;11.00;10.00;1.25
26185;PMS7003;20067;48.764;9.176;2023-09-30T02:01:03;7.50;7.50;1.00
26185;PMS7003;20067;48.764;9.176;2023-09-30T02:03:29;12.25;9.75;4.00
26185;PMS7003;20067;48.764;9.176;2023-09-30T02:05:56;8.00;8.00;2.00
26185;PMS7003;20067;48.764;9.176;2023-09-30T02:08:23;8.75;8.75;1.75
26185;PMS7003;20067;48.764;9.176;2023-09-30T02:10:48;10.00;10.00;3.50
26185;PMS7003;20067;48.764;9.176;2023-09-30T02:13:16;8.75;8.25;2.00
26185;PMS7003;20067;48.764;9.176;2023-09-30T02:15:42;9.50;9.50;2.00
26185;PMS7003;20067;48.764;9.176;2023-09-30T02:18:07;10.00;9.25;2.00
26185;PMS7003;20067;48.764;9.176;2023-09-30T02:20:34;10.50;10.50;4.00
26185;PMS7003;20067;48.764;9.176;2023-09-30T02:23:01;9.75;9.50;2.75
26185;PMS7003;20067;48.764;9.176;2023-09-30T02:25:27;15.50;10.00;2.00
26185;PMS7003;20067;48.764;9.176;2023-09-30T02:27:53;10.00;9.00;2.00
26185;PMS7003;20067;48.764;9.176;2023-09-30T02:30:19;10.00;9.75;2.00
26185;PMS7003;20067;48.764;9.176;2023-09-30T02:32:46;12.50;11.50;2.00
26185;PMS7003;20067;48.764;9.176;2023-09-30T02:35:12;8.75;8.00;1.25
26185;PMS7003;20067;48.764;9.176;2023-09-30T02:37:40;12.75;9.75;4.00
26185;PMS7003;20067;48.764;9.176;2023-09-30T02:40:06;11.00;10.00;2.00
26185;PMS7003;20067;48.764;9.176;2023-09-30T02:42:39;9.75;8.50;2.00
26185;PMS7003;20067;48.764;9.176;2023-09-30T02:45:06;11.25;9.50;3.00
26185;PMS7003;20067;48.764;9.176;2023-09-30T02:47:35;8.25;8.00;2.50
26185;PMS7003;20067;48.764;9.176;2023-09-30T02:50:02;12.75;12.75;4.00
26185;PMS7003;20067;48.764;9.176;2023-09-30T02:52:30;13.50;9.25;3.50
26185;PMS7003;20067;48.764;9.176;2023-09-30T02:54:56;12.00;12.00;4.00
26185;PMS7003;20067;48.764;9.176;2023-09-30T02:57:23;12.00;11.50;2.00
26185;PMS7003;20067;48.764;9.176;2023-09-30T02:59:49;11.00;11.00;2.00
26185;PMS7003;20067;48.764;9.176;2023-09-30T03:02:17;15.25;11.00;2.00
26185;PMS7003;20067;48.764;9.176;2023-09-30T03:04:46;12.75;12.75;3.50
26185;PMS7003;20067;48.764;9.176;2023-09-30T03:07:13;12.25;11.00;2.00
26185;PMS7003;20067;48.764;9.176;2023-09-30T03:09:39;9.25;9.25;2.00
26185;PMS7003;20067;48.764;9.176;2023-09-30T03:12:04;12.50;10.25;2.00
26185;PMS7003;20067;48.764;9.176;2023-09-30T03:14:31;10.25;10.25;2.00
26185;PMS7003;20067;48.764;9.176;2023-09-30T03:16:57;12.50;11.00;2.00
26185;PMS7003;20067;48.764;9.176;2023-09-30T03:19:24;8.50;8.50;2.00
26185;PMS7003;20067;48.764;9.176;2023-09-30T03:21:49;9.25;8.00;2.00
26185;PMS7003;20067;48.764;9.176;2023-09-30T03:24:15;12.25;11.50;4.50
26185;PMS7003;20067;48.764;9.176;2023-09-30T03:26:41;9.25;9.00;3.00
26185;PMS7003;20067;48.764;9.176;2023-09-30T03:29:07;13.00;10.00;2.00
26185;PMS7003;20067;48.764;9.176;2023-09-30T03:31:37;11.25;8.25;2.00
26185;PMS7003;20067;48.764;9.176;2023-09-30T03:34:03;8.00;8.00;2.00
26185;PMS7003;20067;48.764;9.176;2023-09-30T03:36:29;10.00;10.00;2.00
26185;PMS7003;20067;48.764;9.176;2023-09-30T03:38:55;11.00;11.00;3.50
26185;PMS7003;20067;48.764;9.176;2023-09-30T03:41:24;11.25;10.75;2.00
26185;PMS7003;20067;48.764;9.176;2023-09-30T03:43:51;13.00;13.00;2.00
26185;PMS7003;20067;48.764;9.176;2023-09-30T03:46:16;11.25;9.50;1.50
26185;PMS7003;20067;48.764;9.176;2023-09-30T03:48:42;13.75;12.25;2.00
26185;PMS7003;20067;48.764;9.176;2023-09-30T03:53:42;11.00;9.00;1.00
26185;PMS7003;20067;48.764;9.176;2023-09-30T03:56:11;12.50;12.50;1.00
26185;PMS7003;20067;48.764;9.176;2023-09-30T03:58:38;16.50;15.75;2.00
26185;PMS7003;20067;48.764;9.176;2023-09-30T04:01:05;14.50;14.00;2.00
26185;PMS7003;20067;48.764;9.176;2023-09-30T04:03:31;19.00;19.00;2.00
26185;PMS7003;20067;48.764;9.176;2023-09-30T04:06:04;14.25;13.75;1.50
26185;PMS7003;20067;48.764;9.176;2023-09-30T04:08:31;13.00;13.00;1.50
26185;PMS7003;20067;48.764;9.176;2023-09-30T04:10:58;13.00;12.75;2.00
26185;PMS7003;20067;48.764;9.176;2023-09-30T04:13:25;15.00;12.75;2.00
26185;PMS7003;20067;48.764;9.176;2023-09-30T04:15:51;13.00;10.00;2.50
26185;PMS7003;20067;48.764;9.176;2023-09-30T04:18:16;10.25;10.25;3.00
26185;PMS7003;20067;48.764;9.176;2023-09-30T04:20:45;9.50;8.50;2.00
26185;PMS7003;20067;48.764;9.176;2023-09-30T04:23:11;13.00;12.25;4.00
26185;PMS7003;20067;48.764;9.176;2023-09-30T04:25:38;11.25;10.00;2.00
26185;PMS7003;20067;48.764;9.176;2023-09-30T04:28:03;10.00;9.50;4.00
26185;PMS7003;20067;48.764;9.176;2023-09-30T04:30:29;9.25;9.25;1.50
26185;PMS7003;20067;48.764;9.176;2023-09-30T04:32:57;8.75;8.50;2.00
26185;PMS7003;20067;48.764;9.176;2023-09-30T04:35:26;9.00;9.00;4.00
26185;PMS7003;20067;48.764;9.176;2023-09-30T04:37:52;9.00;9.00;3.50
26185;PMS7003;20067;48.764;9.176;2023-09-30T04:40:17;10.00;10.00;2.50
26185;PMS7003;20067;48.764;9.176;2023-09-30T04:42:46;9.25;8.50;4.00
26185;PMS7003;20067;48.764;9.176;2023-09-30T04:45:13;12.25;10.50;3.00
26185;PMS7003;20067;48.764;9.176;2023-09-30T04:47:44;11.00;10.50;2.00
26185;PMS7003;20067;48.764;9.176;2023-09-30T04:50:10;12.50;9.25;2.00
26185;PMS7003;20067;48.764;9.176;2023-09-30T04:52:38;12.25;12.00;4.00
26185;PMS7003;20067;48.764;9.176;2023-09-30T04:55:06;9.00;8.00;2.00
26185;PMS7003;20067;48.764;9.176;2023-09-30T04:57:33;10.50;10.00;2.00
26185;PMS7003;20067;48.764;9.176;2023-09-30T04:59:58;11.50;11.50;4.00
26185;PMS7003;20067;48.764;9.176;2023-09-30T05:02:24;12.50;10.00;2.00
26185;PMS7003;20067;48.764;9.176;2023-09-30T05:04:50;11.00;9.00;2.00
26185;PMS7003;20067;48.764;9.176;2023-09-30T05:07:17;8.75;8.75;1.25
26185;PMS7003;20067;48.764;9.176;2023-09-30T05:09:43;11.00;9.50;4.00
26185;PMS7003;20067;48.764;9.176;2023-09-30T05:12:09;11.50;10.00;4.00
26185;PMS7003;20067;48.764;9.176;2023-09-30T05:14:36;13.75;11.25;4.00
26185;PMS7003;20067;48.764;9.176;2023-09-30T05:17:03;12.00;12.00;2.00
26185;PMS7003;20067;48.764;9.176;2023-09-30T05:19:30;11.25;10.50;2.00
26185;PMS7003;20067;48.764;9.176;2023-09-30T05:21:57;10.00;10.00;3.00
26185;PMS7003;20067;48.764;9.176;2023-09-30T05:24:23;11.00;10.00;2.00
26185;PMS7003;20067;48.764;9.176;2023-09-30T05:26:48;13.75;12.75;2.00
26185;PMS7003;20067;48.764;9.176;2023-09-30T05:29:14;10.00;10.00;2.50
26185;PMS7003;20067;48.764;9.176;2023-09-30T05:31:39;10.50;9.00;1.75
26185;PMS7003;20067;48.764;9.176;2023-09-30T05:34:05;12.50;11.50;4.00
26185;PMS7003;20067;48.764;9.176;2023-09-30T05:36:31;11.50;11.25;4.00
26185;PMS7003;20067;48.764;9.176;2023-09-30T05:38:56;12.50;11.00;2.00
26185;PMS7003;20067;48.764;9.176;2023-09-30T05:41:22;11.50;10.75;2.00
26185;PMS7003;20067;48.764;9.176;2023-09-30T05:43:48;12.00;12.00;2.50
26185;PMS7003;20067;48.764;9.176;2023-09-30T05:46:14;12.00;12.00;4.00
26185;PMS7003;20067;48.764;9.176;2023-09-30T05:48:41;12.50;12.00;2.00
26185;PMS7003;20067;48.764;9.176;2023-09-30T05:51:07;15.50;14.00;2.00
26185;PMS7003;20067;48.764;9.176;2023-09-30T05:53:32;15.00;14.25;1.50
26185;PMS7003;20067;48.764;9.176;2023-09-30T05:55:58;15.75;15.25;3.00
26185;PMS7003;20067;48.764;9.176;2023-09-30T05:58:25;13.50;11.25;2.00
26185;PMS7003;20067;48.764;9.176;2023-09-30T06:00:51;13.50;11.75;1.75
26185;PMS7003;20067;48.764;9.176;2023-09-30T06:03:18;14.50;13.00;2.00
26185;PMS7003;20067;48.764;9.176;2023-09-30T06:05:44;15.25;15.00;4.00
26185;PMS7003;20067;48.764;9.176;2023-09-30T06:08:09;14.00;12.00;1.25
26185;PMS7003;20067;48.764;9.176;2023-09-30T06:10:39;17.50;17.50;2.50
26185;PMS7003;20067;48.764;9.176;2023-09-30T06:13:08;13.50;13.00;2.00
26185;PMS7003;20067;48.764;9.176;2023-09-30T06:15:34;15.75;15.75;4.00
26185;PMS7003;20067;48.764;9.176;2023-09-30T06:18:05;15.50;14.50;2.00
26185;PMS7003;20067;48.764;9.176;2023-09-30T06:20:31;13.25;13.25;3.50
26185;PMS7003;20067;48.764;9.176;2023-09-30T06:22:58;11.25;11.25;2.00
26185;PMS7003;20067;48.764;9.176;2023-09-30T06:25:25;15.25;15.25;2.00
26185;PMS7003;20067;48.764;9.176;2023-09-30T06:27:52;13.25;12.00;4.00
26185;PMS7003;20067;48.764;9.176;2023-09-30T06:30:22;15.00;12.75;4.00
26185;PMS7003;20067;48.764;9.176;2023-09-30T06:32:56;16.00;15.25;4.00
26185;PMS7003;20067;48.764;9.176;2023-09-30T06:35:22;17.50;15.00;4.00
26185;PMS7003;20067;48.764;9.176;2023-09-30T06:37:48;12.25;11.50;2.50
26185;PMS7003;20067;48.764;9.176;2023-09-30T06:40:14;10.00;10.00;2.00
26185;PMS7003;20067;48.764;9.176;2023-09-30T06:42:40;12.00;12.00;4.00
26185;PMS7003;20067;48.764;9.176;2023-09-30T06:45:05;16.50;12.75;4.00
26185;PMS7003;20067;48.764;9.176;2023-09-30T06:47:32;12.00;12.00;4.00
26185;PMS7003;20067;48.764;9.176;2023-09-30T06:50:00;14.25;12.50;4.25
26185;PMS7003;20067;48.764;9.176;2023-09-30T06:52:32;13.25;13.00;4.25
26185;PMS7003;20067;48.764;9.176;2023-09-30T06:54:59;15.25;14.75;3.00
26185;PMS7003;20067;48.764;9.176;2023-09-30T06:57:24;16.50;14.00;3.50
26185;PMS7003;20067;48.764;9.176;2023-09-30T06:59:50;14.00;12.75;3.50
26185;PMS7003;20067;48.764;9.176;2023-09-30T07:02:16;13.25;12.00;4.00
26185;PMS7003;20067;48.764;9.176;2023-09-30T07:04:41;11.50;11.50;4.50
26185;PMS7003;20067;48.764;9.176;2023-09-30T07:07:07;15.00;13.00;4.00
26185;PMS7003;20067;48.764;9.176;2023-09-30T07:09:32;15.00;14.25;5.75
26185;PMS7003;20067;48.764;9.176;2023-09-30T07:11:58;12.00;11.75;3.50
26185;PMS7003;20067;48.764;9.176;2023-09-30T07:14:24;18.00;16.50;5.25
26185;PMS7003;20067;48.764;9.176;2023-09-30T07:16:50;15.75;14.50;5.00
26185;PMS7003;20067;48.764;9.176;2023-09-30T07:19:15;17.00;14.25;4.00
26185;PMS7003;20067;48.764;9.176;2023-09-30T07:21:41;16.00;14.50;6.00
26185;PMS7003;20067;48.764;9.176;2023-09-30T07:24:07;19.00;16.50;5.00
26185;PMS7003;20067;48.764;9.176;2023-09-30T07:26:32;15.25;14.00;5.50
26185;PMS7003;20067;48.764;9.176;2023-09-30T07:28:58;12.00;11.50;4.00
26185;PMS7003;20067;48.764;9.176;2023-09-30T07:31:24;12.50;12.00;4.00
26185;PMS7003;20067;48.764;9.176;2023-09-30T07:33:50;12.75;11.50;4.75
26185;PMS7003;20067;48.764;9.176;2023-09-30T07:36:16;15.00;12.00;4.00
26185;PMS7003;20067;48.764;9.176;2023-09-30T07:38:41;18.50;15.75;5.50
26185;PMS7003;20067;48.764;9.176;2023-09-30T07:41:07;17.25;15.25;4.75
26185;PMS7003;20067;48.764;9.176;2023-09-30T07:43:35;16.00;13.25;4.00
26185;PMS7003;20067;48.764;9.176;2023-09-30T07:46:05;14.25;13.50;5.00
26185;PMS7003;20067;48.764;9.176;2023-09-30T07:48:31;19.00;15.75;6.00
26185;PMS7003;20067;48.764;9.176;2023-09-30T07:50:57;16.50;15.25;4.25
26185;PMS7003;20067;48.764;9.176;2023-09-30T07:53:23;13.00;12.00;4.00
26185;PMS7003;20067;48.764;9.176;2023-09-30T07:55:49;13.50;13.00;4.00
26185;PMS7003;20067;48.764;9.176;2023-09-30T07:58:14;15.00;13.00;4.50
26185;PMS7003;20067;48.764;9.176;2023-09-30T08:00:40;15.00;12.00;4.00
26185;PMS7003;20067;48.764;9.176;2023-09-30T08:03:05;14.25;12.00;4.00
26185;PMS7003;20067;48.764;9.176;2023-09-30T08:05:31;18.50;16.00;4.50
26185;PMS7003;20067;48.764;9.176;2023-09-30T08:07:57;14.50;13.00;5.00
26185;PMS7003;20067;48.764;9.176;2023-09-30T08:10:22;16.00;13.00;3.50
26185;PMS7003;20067;48.764;9.176;2023-09-30T08:12:48;16.00;16.00;4.00
26185;PMS7003;20067;48.764;9.176;2023-09-30T08:15:15;24.75;21.00;4.00
26185;PMS7003;20067;48.764;9.176;2023-09-30T08:17:40;19.00;15.25;4.75
26185;PMS7003;20067;48.764;9.176;2023-09-30T08:20:06;20.50;19.75;5.75
26185;PMS7003;20067;48.764;9.176;2023-09-30T08:22:36;16.00;14.75;4.75
26185;PMS7003;20067;48.764;9.176;2023-09-30T08:25:01;12.50;12.50;3.50
26185;PMS7003;20067;48.764;9.176;2023-09-30T08:27:28;14.25;14.00;5.00
26185;PMS7003;20067;48.764;9.176;2023-09-30T08:29:53;16.75;15.75;5.75
26185;PMS7003;20067;48.764;9.176;2023-09-30T08:32:19;16.50;15.75;6.50
26185;PMS7003;20067;48.764;9.176;2023-09-30T08:34:44;19.00;15.50;6.00
26185;PMS7003;20067;48.764;9.176;2023-09-30T08:37:10;13.00;13.00;5.00
26185;PMS7003;20067;48.764;9.176;2023-09-30T08:39:39;17.00;15.25;6.25
26185;PMS7003;20067;48.764;9.176;2023-09-30T08:42:07;15.00;15.00;6.25
26185;PMS7003;20067;48.764;9.176;2023-09-30T08:44:36;15.00;13.75;5.25
26185;PMS7003;20067;48.764;9.176;2023-09-30T08:47:04;15.00;14.25;5.50
26185;PMS7003;20067;48.764;9.176;2023-09-30T08:49:33;16.25;12.50;6.00
26185;PMS7003;20067;48.764;9.176;2023-09-30T08:52:02;16.50;14.50;5.25
26185;PMS7003;20067;48.764;9.176;2023-09-30T08:54:29;16.25;15.75;6.75
26185;PMS7003;20067;48.764;9.176;2023-09-30T08:56:56;18.00;16.50;6.75
26185;PMS7003;20067;48.764;9.176;2023-09-30T08:59:22;16.00;15.50;6.25
26185;PMS7003;20067;48.764;9.176;2023-09-30T09:01:50;21.50;17.00;7.50
26185;PMS7003;20067;48.764;9.176;2023-09-30T09:04:17;15.50;13.50;6.00
26185;PMS7003;20067;48.764;9.176;2023-09-30T09:06:43;21.00;16.75;7.25
26185;PMS7003;20067;48.764;9.176;2023-09-30T09:11:44;13.75;13.50;6.75
26185;PMS7003;20067;48.764;9.176;2023-09-30T09:14:11;17.00;14.75;6.00
26185;PMS7003;20067;48.764;9.176;2023-09-30T09:16:37;16.50;15.75;7.25
26185;PMS7003;20067;48.764;9.176;2023-09-30T09:19:15;16.50;16.00;7.00
26185;PMS7003;20067;48.764;9.176;2023-09-30T09:21:54;16.50;13.75;7.00
26185;PMS7003;20067;48.764;9.176;2023-09-30T09:24:26;12.00;11.25;4.50
26185;PMS7003;20067;48.764;9.176;2023-09-30T09:26:52;12.75;12.75;5.50
26185;PMS7003;20067;48.764;9.176;2023-09-30T09:29:39;18.00;17.50;7.50
26185;PMS7003;20067;48.764;9.176;2023-09-30T09:32:06;15.00;13.00;5.00
26185;PMS7003;20067;48.764;9.176;2023-09-30T09:34:33;13.00;13.00;6.00
26185;PMS7003;20067;48.764;9.176;2023-09-30T09:36:58;13.25;12.00;4.00
26185;PMS7003;20067;48.764;9.176;2023-09-30T09:39:30;13.00;12.00;4.00
26185;PMS7003;20067;48.764;9.176;2023-09-30T09:41:56;11.00;11.00;4.00
26185;PMS7003;20067;48.764;9.176;2023-09-30T09:44:23;10.50;10.50;4.00
26185;PMS7003;20067;48.764;9.176;2023-09-30T09:46:50;14.00;13.25;6.00
26185;PMS7003;20067;48.764;9.176;2023-09-30T09:49:16;17.50;17.00;6.75
26185;PMS7003;20067;48.764;9.176;2023-09-30T09:51:43;14.00;14.00;4.50
26185;PMS7003;20067;48.764;9.176;2023-09-30T09:54:11;12.25;11.25;5.50
26185;PMS7003;20067;48.764;9.176;2023-09-30T09:56:38;20.00;19.50;10.50
26185;PMS7003;20067;48.764;9.176;2023-09-30T09:59:04;12.25;10.50;3.50
26185;PMS7003;20067;48.764;9.176;2023-09-30T10:01:40;15.25;13.00;3.50
26185;PMS7003;20067;48.764;9.176;2023-09-30T10:04:47;15.00;13.50;3.50
26185;PMS7003;20067;48.764;9.176;2023-09-30T10:07:14;14.75;14.00;5.00
26185;PMS7003;20067;48.764;9.176;2023-09-30T10:09:53;13.25;13.25;6.00
26185;PMS7003;20067;48.764;9.176;2023-09-30T10:12:22;12.75;12.75;5.00
26185;PMS7003;20067;48.764;9.176;2023-09-30T10:14:51;11.75;11.00;3.00
26185;PMS7003;20067;48.764;9.176;2023-09-30T10:17:17;12.25;12.00;5.00
26185;PMS7003;20067;48.764;9.176;2023-09-30T10:22:28;12.00;11.00;4.00
26185;PMS7003;20067;48.764;9.176;2023-09-30T10:24:58;12.75;11.25;4.00
26185;PMS7003;20067;48.764;9.176;2023-09-30T10:29:56;15.00;12.75;3.00
26185;PMS7003;20067;48.764;9.176;2023-09-30T10:40:48;17.25;13.50;5.00
26185;PMS7003;20067;48.764;9.176;2023-09-30T10:43:31;10.50;10.50;4.00
26185;PMS7003;20067;48.764;9.176;2023-09-30T10:46:01;15.25;15.00;4.50
26185;PMS7003;20067;48.764;9.176;2023-09-30T10:51:00;12.50;12.50;5.00
26185;PMS7003;20067;48.764;9.176;2023-09-30T10:53:35;14.00;12.75;5.00
26185;PMS7003;20067;48.764;9.176;2023-09-30T10:56:09;13.00;12.25;5.00
26185;PMS7003;20067;48.764;9.176;2023-09-30T10:58:41;11.75;11.75;4.75
26185;PMS7003;20067;48.764;9.176;2023-09-30T11:01:07;11.25;10.50;4.00
26185;PMS7003;20067;48.764;9.176;2023-09-30T11:03:33;16.25;12.50;4.00
26185;PMS7003;20067;48.764;9.176;2023-09-30T11:05:59;13.50;11.00;4.25
26185;PMS7003;20067;48.764;9.176;2023-09-30T11:08:24;14.00;13.75;6.50
26185;PMS7003;20067;48.764;9.176;2023-09-30T11:10:57;13.25;10.50;4.50
26185;PMS7003;20067;48.764;9.176;2023-09-30T11:13:22;17.75;14.75;5.00
26185;PMS7003;20067;48.764;9.176;2023-09-30T11:16:02;14.00;14.00;6.00
26185;PMS7003;20067;48.764;9.176;2023-09-30T11:18:33;14.50;14.00;4.50
26185;PMS7003;20067;48.764;9.176;2023-09-30T11:21:03;15.00;14.25;5.00
26185;PMS7003;20067;48.764;9.176;2023-09-30T11:23:34;19.75;18.50;7.25
26185;PMS7003;20067;48.764;9.176;2023-09-30T11:26:01;13.25;13.00;5.00
26185;PMS7003;20067;48.764;9.176;2023-09-30T11:28:35;14.75;14.75;5.00
26185;PMS7003;20067;48.764;9.176;2023-09-30T11:31:02;15.50;14.25;4.75
26185;PMS7003;20067;48.764;9.176;2023-09-30T11:33:30;17.25;15.00;4.75
26185;PMS7003;20067;48.764;9.176;2023-09-30T11:36:05;14.50;13.75;4.00
26185;PMS7003;20067;48.764;9.176;2023-09-30T11:38:31;15.25;15.25;4.00
26185;PMS7003;20067;48.764;9.176;2023-09-30T11:41:00;13.75;12.75;4.00
26185;PMS7003;20067;48.764;9.176;2023-09-30T11:43:33;14.00;14.00;4.00
26185;PMS7003;20067;48.764;9.176;2023-09-30T11:46:06;15.75;14.00;4.25
26185;PMS7003;20067;48.764;9.176;2023-09-30T11:51:22;17.50;15.00;6.25
26185;PMS7003;20067;48.764;9.176;2023-09-30T11:53:52;14.50;12.25;3.00
26185;PMS7003;20067;48.764;9.176;2023-09-30T11:56:19;14.50;12.50;4.00
26185;PMS7003;20067;48.764;9.176;2023-09-30T11:58:44;17.00;12.75;4.00
26185;PMS7003;20067;48.764;9.176;2023-09-30T12:01:11;12.50;12.00;3.00
26185;PMS7003;20067;48.764;9.176;2023-09-30T12:03:39;13.25;13.25;3.75
26185;PMS7003;20067;48.764;9.176;2023-09-30T12:06:07;13.50;12.00;4.00
26185;PMS7003;20067;48.764;9.176;2023-09-30T12:08:35;14.00;11.00;4.00
26185;PMS7003;20067;48.764;9.176;2023-09-30T12:11:02;12.75;11.25;4.00
26185;PMS7003;20067;48.764;9.176;2023-09-30T12:13:28;14.00;14.00;5.00
26185;PMS7003;20067;48.764;9.176;2023-09-30T12:15:54;13.50;13.00;5.00
26185;PMS7003;20067;48.764;9.176;2023-09-30T12:18:20;13.00;12.00;3.75
26185;PMS7003;20067;48.764;9.176;2023-09-30T12:20:49;14.75;14.75;5.00
26185;PMS7003;20067;48.764;9.176;2023-09-30T12:23:17;16.25;15.00;5.50
26185;PMS7003;20067;48.764;9.176;2023-09-30T12:25:43;15.00;14.50;4.00
26185;PMS7003;20067;48.764;9.176;2023-09-30T12:28:09;20.00;16.50;7.00
26185;PMS7003;20067;48.764;9.176;2023-09-30T12:30:35;15.00;14.00;4.50
26185;PMS7003;20067;48.764;9.176;2023-09-30T12:33:01;13.00;10.75;4.00
26185;PMS7003;20067;48.764;9.176;2023-09-30T12:35:26;15.50;11.75;3.00
26185;PMS7003;20067;48.764;9.176;2023-09-30T12:37:52;10.75;10.00;4.00
26185;PMS7003;20067;48.764;9.176;2023-09-30T12:40:18;14.00;12.25;4.00
26185;PMS7003;20067;48.764;9.176;2023-09-30T12:42:44;12.00;10.75;3.75
26185;PMS7003;20067;48.764;9.176;2023-09-30T12:45:11;13.75;12.00;3.00
26185;PMS7003;20067;48.764;9.176;2023-09-30T12:47:38;14.75;14.75;6.50
26185;PMS7003;20067;48.764;9.176;2023-09-30T12:50:04;14.50;9.50;4.00
26185;PMS7003;20067;48.764;9.176;2023-09-30T12:52:33;12.50;11.75;4.75
26185;PMS7003;20067;48.764;9.176;2023-09-30T12:54:59;13.00;11.00;3.00
26185;PMS7003;20067;48.764;9.176;2023-09-30T12:57:28;11.25;11.25;4.00
26185;PMS7003;20067;48.764;9.176;2023-09-30T12:59:53;13.25;12.25;4.25
26185;PMS7003;20067;48.764;9.176;2023-09-30T13:02:19;14.00;13.00;4.00
26185;PMS7003;20067;48.764;9.176;2023-09-30T13:04:46;13.75;11.00;3.00
26185;PMS7003;20067;48.764;9.176;2023-09-30T13:07:12;14.25;12.00;4.00
26185;PMS7003;20067;48.764;9.176;2023-09-30T13:09:38;12.25;12.25;5.00
26185;PMS7003;20067;48.764;9.176;2023-09-30T13:12:04;15.50;14.25;5.00
26185;PMS7003;20067;48.764;9.176;2023-09-30T13:14:30;11.25;11.25;4.00
26185;PMS7003;20067;48.764;9.176;2023-09-30T13:16:56;15.50;12.75;4.50
26185;PMS7003;20067;48.764;9.176;2023-09-30T13:19:21;12.50;12.00;3.25
26185;PMS7003;20067;48.764;9.176;2023-09-30T13:21:48;14.50;14.00;3.75
26185;PMS7003;20067;48.764;9.176;2023-09-30T13:24:18;14.00;13.00;3.00
26185;PMS7003;20067;48.764;9.176;2023-09-30T13:26:45;15.00;14.75;3.00
26185;PMS7003;20067;48.764;9.176;2023-09-30T13:29:11;13.50;13.00;3.00
26185;PMS7003;20067;48.764;9.176;2023-09-30T13:31:38;18.00;16.00;4.00
26185;PMS7003;20067;48.764;9.176;2023-09-30T13:34:04;15.50;15.25;3.00
26185;PMS7003;20067;48.764;9.176;2023-09-30T13:36:30;16.00;15.25;3.00
26185;PMS7003;20067;48.764;9.176;2023-09-30T13:38:56;17.50;16.50;3.00
26185;PMS7003;20067;48.764;9.176;2023-09-30T13:41:22;18.25;15.75;4.00
26185;PMS7003;20067;48.764;9.176;2023-09-30T13:43:47;14.75;13.50;4.00
26185;PMS7003;20067;48.764;9.176;2023-09-30T13:46:13;10.25;10.00;3.25
26185;PMS7003;20067;48.764;9.176;2023-09-30T13:48:38;11.75;11.25;4.00
26185;PMS7003;20067;48.764;9.176;2023-09-30T13:51:08;12.50;12.50;4.00
26185;PMS7003;20067;48.764;9.176;2023-09-30T13:53:35;17.00;16.00;6.00
26185;PMS7003;20067;48.764;9.176;2023-09-30T13:56:01;21.50;19.00;4.00
26185;PMS7003;20067;48.764;9.176;2023-09-30T13:58:30;15.00;14.50;6.00
26185;PMS7003;20067;48.764;9.176;2023-09-30T14:00:56;12.75;12.25;3.50
26185;PMS7003;20067;48.764;9.176;2023-09-30T14:03:22;12.25;11.50;3.25
26185;PMS7003;20067;48.764;9.176;2023-09-30T14:05:49;15.25;13.75;4.00
26185;PMS7003;20067;48.764;9.176;2023-09-30T14:08:15;13.50;12.00;4.00
26185;PMS7003;20067;48.764;9.176;2023-09-30T14:10:41;16.25;15.75;6.00
26185;PMS7003;20067;48.764;9.176;2023-09-30T14:13:08;13.75;13.00;3.00
26185;PMS7003;20067;48.764;9.176;2023-09-30T14:15:34;13.75;13.00;3.75
26185;PMS7003;20067;48.764;9.176;2023-09-30T14:17:59;13.75;13.75;4.00
26185;PMS7003;20067;48.764;9.176;2023-09-30T14:20:25;18.00;14.50;6.50
26185;PMS7003;20067;48.764;9.176;2023-09-30T14:22:51;12.75;12.50;5.50
26185;PMS7003;20067;48.764;9.176;2023-09-30T14:25:20;15.75;14.00;6.00